Time;durP1;ratioP1;P1;durP2;ratioP2;P2;SDS_P1;SDS_P2;PMS_P1;PMS_P2;Temp;Humidity;BMP_temperature;BMP_pressure;BME280_temperature;BME280_humidity;BME280_pressure;Samples;Min_cycle;Max_cycle;Signal;HPM_P1;HPM_P2
2022/07/18 00:01:45;;;;;;;1999.90;999.90;;;16.30;99.90;;;;;;4893926;29;20059;-82
2022/07/18 00:04:11;;;;;;;1999.90;999.90;;;16.30;99.90;;;;;;4894720;29;20045;-84
2022/07/18 00:06:36;;;;;;;1999.90;999.90;;;16.20;99.90;;;;;;4891442;29;20099;-84
2022/07/18 00:09:03;;;;;;;1970.25;999.90;;;16.20;99.90;;;;;;4890435;29;20091;-84
2022/07/18 00:11:29;;;;;;;1999.90;999.90;;;16.20;99.90;;;;;;4887615;29;20048;-85
2022/07/18 00:13:55;;;;;;;1999.90;999.90;;;16.10;99.90;;;;;;4894359;29;20454;-84
2022/07/18 00:16:22;;;;;;;1999.90;999.90;;;16.10;99.90;;;;;;4887973;29;20048;-84
2022/07/18 00:18:48;;;;;;;1999.90;999.90;;;16.10;99.90;;;;;;4893620;29;20057;-84
2022/07/18 00:21:14;;;;;;;1999.90;999.90;;;16.10;99.90;;;;;;4890644;29;20084;-84
2022/07/18 00:23:40;;;;;;;1999.90;999.90;;;16.00;99.90;;;;;;4895407;29;20088;-83
2022/07/18 00:26:05;;;;;;;1999.90;999.90;;;16.00;99.90;;;;;;4890867;29;20430;-84
2022/07/18 00:28:31;;;;;;;1950.38;999.90;;;16.00;99.90;;;;;;4885325;29;20135;-87
2022/07/18 00:30:57;;;;;;;1999.90;999.90;;;16.00;99.90;;;;;;4907467;29;20044;-87
2022/07/18 00:33:22;;;;;;;1999.90;999.90;;;15.90;99.90;;;;;;4889456;29;20060;-84
2022/07/18 00:35:48;;;;;;;1995.80;999.90;;;16.00;1.00;;;;;;4891816;29;20052;-84
2022/07/18 00:38:14;;;;;;;1996.93;999.90;;;16.00;1.00;;;;;;4890734;29;20122;-84
2022/07/18 00:40:40;;;;;;;1999.90;999.90;;;15.90;1.00;;;;;;4890549;29;20140;-85
2022/07/18 00:43:06;;;;;;;1999.90;999.90;;;15.90;1.00;;;;;;4891146;29;20461;-85
2022/07/18 00:45:31;;;;;;;1999.90;999.90;;;15.90;1.00;;;;;;4892902;29;20080;-84
2022/07/18 00:47:57;;;;;;;1999.90;999.90;;;16.00;1.00;;;;;;4892239;29;20064;-84
2022/07/18 00:50:23;;;;;;;1838.65;999.90;;;15.90;1.00;;;;;;4890457;29;20412;-85
2022/07/18 00:52:50;;;;;;;1960.07;999.90;;;16.10;1.00;;;;;;4893126;29;20159;-83
2022/07/18 00:55:15;;;;;;;1484.72;999.90;;;15.90;1.00;;;;;;4892645;29;20494;-84
2022/07/18 00:57:42;;;;;;;1863.65;999.90;;;15.90;1.00;;;;;;4874921;29;20083;-84
2022/07/18 01:02:58;;;;;;;1999.90;999.90;;;15.90;1.00;;;;;;4884477;29;20067;-83
2022/07/18 01:05:24;;;;;;;1999.90;999.90;;;15.80;1.00;;;;;;4894258;29;20362;-83
2022/07/18 01:07:51;;;;;;;1535.70;999.90;;;15.90;1.00;;;;;;4877462;29;20046;-84
2022/07/18 01:10:18;;;;;;;1508.30;999.90;;;15.80;1.00;;;;;;4892063;29;20048;-85
2022/07/18 01:12:44;;;;;;;1999.90;999.90;;;15.90;1.00;;;;;;4889471;29;20112;-85
2022/07/18 01:15:11;;;;;;;1999.90;999.90;;;15.80;1.00;;;;;;4892044;29;20044;-84
2022/07/18 01:17:36;;;;;;;1999.90;999.90;;;15.80;1.00;;;;;;4886408;29;20040;-87
2022/07/18 01:20:04;;;;;;;1999.90;999.90;;;15.70;1.00;;;;;;4893599;29;20462;-83
2022/07/18 01:22:30;;;;;;;1999.90;999.90;;;15.70;1.00;;;;;;4893805;29;20083;-84
2022/07/18 01:24:55;;;;;;;1684.30;999.90;;;15.70;1.00;;;;;;4890658;29;20080;-84
2022/07/18 01:27:22;;;;;;;1730.80;999.90;;;15.70;1.00;;;;;;4891854;29;20048;-84
2022/07/18 01:29:50;;;;;;;1949.13;999.90;;;15.60;1.00;;;;;;4892028;29;20073;-84
2022/07/18 01:32:16;;;;;;;1999.90;999.90;;;15.60;1.00;;;;;;4877000;29;20051;-85
2022/07/18 01:34:44;;;;;;;1909.93;999.90;;;15.60;1.00;;;;;;4889533;29;20052;-84
2022/07/18 01:37:10;;;;;;;1999.90;999.90;;;15.60;1.00;;;;;;4875293;29;20096;-84
2022/07/18 01:39:36;;;;;;;1793.35;999.90;;;15.60;1.00;;;;;;4890262;29;20500;-83
2022/07/18 01:42:07;;;;;;;1999.90;999.90;;;15.50;1.00;;;;;;4887382;29;20123;-85
2022/07/18 01:44:34;;;;;;;1878.97;999.90;;;15.50;1.00;;;;;;4893331;29;20048;-87
2022/07/18 01:47:00;;;;;;;1389.27;999.90;;;15.50;1.00;;;;;;4892853;29;20136;-84
2022/07/18 01:49:28;;;;;;;1910.40;999.90;;;15.50;1.00;;;;;;4888837;29;20365;-84
2022/07/18 01:51:54;;;;;;;;;;;15.40;1.00;;;;;;4887462;29;20064;-85
2022/07/18 01:54:25;;;;;;;1924.95;999.90;;;15.40;1.00;;;;;;4885501;29;19923;-88
2022/07/18 01:56:50;;;;;;;1639.53;999.90;;;15.40;1.00;;;;;;4885950;29;20140;-84
2022/07/18 01:59:17;;;;;;;1999.90;999.90;;;15.50;1.00;;;;;;4887486;29;20445;-84
2022/07/18 02:01:43;;;;;;;1999.90;999.90;;;15.40;1.00;;;;;;4887887;29;20148;-84
2022/07/18 02:04:09;;;;;;;1999.90;999.90;;;15.40;1.00;;;;;;4888726;29;20047;-85
2022/07/18 02:06:35;;;;;;;1999.90;999.90;;;15.50;1.00;;;;;;4891742;29;20140;-84
2022/07/18 02:09:01;;;;;;;1999.90;999.90;;;15.50;1.00;;;;;;4875745;29;20049;-85
2022/07/18 02:11:26;;;;;;;1999.90;999.90;;;15.40;1.00;;;;;;4892291;29;20096;-84
2022/07/18 02:13:52;;;;;;;1999.90;999.90;;;15.40;1.00;;;;;;4887999;29;20052;-89
2022/07/18 02:16:18;;;;;;;1834.38;999.90;;;15.40;1.00;;;;;;4891606;29;20068;-89
2022/07/18 02:18:44;;;;;;;1999.90;999.90;;;15.30;1.00;;;;;;4891050;29;20217;-84
2022/07/18 02:21:10;;;;;;;1505.63;999.40;;;15.30;1.00;;;;;;4892469;29;20072;-85
2022/07/18 02:23:36;;;;;;;1931.75;999.90;;;15.30;1.00;;;;;;4890842;29;20044;-85
2022/07/18 02:26:01;;;;;;;1123.65;996.72;;;15.30;1.00;;;;;;4890108;29;20051;-84
2022/07/18 02:28:27;;;;;;;1999.90;999.90;;;15.30;1.00;;;;;;4892044;29;20064;-84
2022/07/18 02:30:53;;;;;;;1999.90;999.90;;;15.30;1.00;;;;;;4892617;29;20060;-84
2022/07/18 02:33:19;;;;;;;1999.90;999.90;;;15.30;1.00;;;;;;4891386;29;20048;-84
2022/07/18 02:35:44;;;;;;;1551.63;999.90;;;15.30;1.00;;;;;;4894325;29;20045;-83
2022/07/18 02:38:10;;;;;;;1999.90;999.90;;;15.30;1.00;;;;;;4873759;29;20056;-83
2022/07/18 02:40:36;;;;;;;1999.90;999.90;;;15.30;1.00;;;;;;4909470;29;20108;-83
2022/07/18 02:43:03;;;;;;;1830.70;999.90;;;15.30;1.00;;;;;;4911597;29;20213;-85
2022/07/18 02:45:29;;;;;;;1171.82;996.17;;;15.30;1.00;;;;;;4909475;29;20076;-83
2022/07/18 02:47:55;;;;;;;1999.90;999.90;;;15.20;1.00;;;;;;4893672;29;20068;-84
2022/07/18 02:50:21;;;;;;;1606.32;999.90;;;15.20;1.00;;;;;;4906950;29;20048;-85
2022/07/18 02:52:47;;;;;;;1723.80;999.90;;;15.20;1.00;;;;;;4902236;29;20064;-84
2022/07/18 02:55:13;;;;;;;1759.72;999.90;;;15.20;1.00;;;;;;4895580;29;21077;-84
2022/07/18 02:57:40;;;;;;;1669.70;999.90;;;15.20;1.00;;;;;;4878097;29;20048;-85
2022/07/18 03:00:09;;;;;;;1999.90;999.90;;;15.20;1.00;;;;;;4893206;29;20347;-84
2022/07/18 03:02:34;;;;;;;1819.32;999.90;;;15.20;1.00;;;;;;4894091;29;20139;-88
2022/07/18 03:05:01;;;;;;;1999.90;999.90;;;15.20;1.00;;;;;;4894381;29;20387;-85
2022/07/18 03:07:26;;;;;;;1999.90;999.90;;;15.20;1.00;;;;;;4890844;29;20040;-87
2022/07/18 03:09:52;;;;;;;1999.90;999.90;;;15.20;1.00;;;;;;4894245;29;20075;-84
2022/07/18 03:12:18;;;;;;;1999.90;999.90;;;15.20;1.00;;;;;;4893018;29;20045;-84
2022/07/18 03:14:44;;;;;;;1988.82;999.90;;;15.20;1.00;;;;;;4895485;29;20085;-84
2022/07/18 03:17:10;;;;;;;1999.90;999.90;;;15.20;1.00;;;;;;4893596;29;20051;-84
2022/07/18 03:19:37;;;;;;;1769.80;999.90;;;15.20;1.00;;;;;;4875981;29;20056;-85
2022/07/18 03:22:03;;;;;;;1806.50;999.90;;;15.20;1.00;;;;;;4893906;29;20435;-84
2022/07/18 03:24:30;;;;;;;1985.55;999.90;;;15.10;1.00;;;;;;4891126;29;20056;-90
2022/07/18 03:26:56;;;;;;;1690.65;999.90;;;15.20;1.00;;;;;;4888100;29;20044;-84
2022/07/18 03:29:22;;;;;;;1999.90;999.90;;;15.10;1.00;;;;;;4894579;29;20076;-85
2022/07/18 03:31:48;;;;;;;1646.68;999.90;;;15.10;1.00;;;;;;4893526;29;20397;-84
2022/07/18 03:34:14;;;;;;;1586.88;999.90;;;15.10;1.00;;;;;;4894501;29;20047;-84
2022/07/18 03:36:39;;;;;;;1748.72;999.90;;;15.10;1.00;;;;;;4892430;29;20128;-84
2022/07/18 03:39:06;;;;;;;1139.35;999.90;;;15.10;1.00;;;;;;4893618;29;20056;-85
2022/07/18 03:41:32;;;;;;;1319.25;999.90;;;15.20;1.00;;;;;;4892811;29;20044;-87
2022/07/18 03:43:58;;;;;;;1446.25;999.90;;;15.20;1.00;;;;;;4891223;29;20050;-84
2022/07/18 03:46:23;;;;;;;1945.85;999.90;;;15.20;1.00;;;;;;4892045;29;20340;-84
2022/07/18 03:48:49;;;;;;;1207.35;999.90;;;15.20;1.00;;;;;;4892349;29;20443;-85
2022/07/18 03:51:15;;;;;;;1656.03;999.90;;;15.20;1.00;;;;;;4891127;29;20056;-84
2022/07/18 03:53:40;;;;;;;1545.00;999.90;;;15.10;1.00;;;;;;4893543;29;20059;-84
2022/07/18 03:56:07;;;;;;;1557.45;999.90;;;15.20;1.00;;;;;;4875105;29;20052;-84
2022/07/18 03:58:33;;;;;;;1859.20;999.90;;;15.20;1.00;;;;;;4891046;29;20056;-92
2022/07/18 04:00:58;;;;;;;1184.78;964.58;;;15.30;1.00;;;;;;4893399;29;20566;-84
2022/07/18 04:03:24;;;;;;;1999.90;999.90;;;15.30;1.00;;;;;;4892958;29;20041;-84
2022/07/18 04:05:50;;;;;;;1517.07;999.90;;;15.70;1.00;;;;;;4893150;29;20562;-83
2022/07/18 04:08:16;;;;;;;1475.47;999.90;;;15.30;1.00;;;;;;4891869;29;20454;-87
2022/07/18 04:10:43;;;;;;;1434.85;999.90;;;15.30;1.00;;;;;;4887217;29;20045;-87
2022/07/18 04:13:09;;;;;;;1208.57;999.90;;;15.20;1.00;;;;;;4891593;29;20048;-84
2022/07/18 04:15:36;;;;;;;1591.35;999.90;;;15.10;1.00;;;;;;4892667;29;20072;-85
2022/07/18 04:18:02;;;;;;;1981.03;999.90;;;15.20;1.00;;;;;;4890830;29;20056;-84
2022/07/18 04:20:28;;;;;;;1747.25;999.90;;;15.20;1.00;;;;;;4894922;29;20076;-83
2022/07/18 04:22:56;;;;;;;1999.90;999.90;;;15.20;1.00;;;;;;4892092;29;20053;-83
2022/07/18 04:25:25;;;;;;;1895.90;691.85;;;15.30;1.00;;;;;;4891850;29;20116;-86
2022/07/18 04:27:51;;;;;;;1607.65;488.02;;;15.30;1.00;;;;;;4876195;29;20585;-84
2022/07/18 04:30:19;;;;;;;1999.90;999.90;;;15.50;1.00;;;;;;4889872;29;20055;-84
2022/07/18 04:32:45;;;;;;;1211.80;976.30;;;15.40;1.00;;;;;;4888478;29;20057;-84
2022/07/18 04:35:11;;;;;;;1999.90;999.90;;;15.50;99.90;;;;;;4894943;29;20047;-84
2022/07/18 04:37:38;;;;;;;1242.85;997.92;;;15.60;1.00;;;;;;4890050;29;20498;-84
2022/07/18 04:40:05;;;;;;;1191.65;878.20;;;15.70;1.00;;;;;;4878853;29;20139;-84
2022/07/18 04:42:31;;;;;;;1478.57;999.53;;;15.80;99.90;;;;;;4888496;29;20047;-84
2022/07/18 04:44:57;;;;;;;1319.03;927.65;;;15.90;99.90;;;;;;4894724;29;20132;-83
2022/07/18 04:47:24;;;;;;;1481.35;999.90;;;16.00;99.90;;;;;;4893014;29;20053;-84
2022/07/18 04:49:49;;;;;;;1999.28;797.42;;;16.10;99.90;;;;;;4892345;29;20057;-84
2022/07/18 04:52:16;;;;;;;1054.55;940.45;;;16.20;99.90;;;;;;4892419;29;20541;-85
2022/07/18 04:54:41;;;;;;;978.45;882.92;;;16.40;99.90;;;;;;4893085;29;20482;-84
2022/07/18 04:57:08;;;;;;;1583.50;999.90;;;16.50;99.90;;;;;;4886307;29;20074;-84
2022/07/18 04:59:34;;;;;;;1819.43;985.17;;;16.70;99.90;;;;;;4889205;29;20086;-85
2022/07/18 05:02:00;;;;;;;1101.80;996.67;;;16.70;99.90;;;;;;4892375;29;20095;-84
2022/07/18 05:04:25;;;;;;;1275.03;960.35;;;16.80;99.90;;;;;;4891001;29;20064;-84
2022/07/18 05:06:51;;;;;;;670.08;619.05;;;16.80;99.90;;;;;;4892563;29;20044;-84
2022/07/18 05:09:17;;;;;;;1541.38;954.55;;;17.00;99.90;;;;;;4893238;29;20071;-84
2022/07/18 05:11:42;;;;;;;975.90;873.63;;;17.00;99.90;;;;;;4888833;29;20669;-84
2022/07/18 05:14:08;;;;;;;1273.75;947.90;;;17.00;99.90;;;;;;4894702;29;20049;-83
2022/07/18 05:16:34;;;;;;;940.20;837.40;;;17.10;99.90;;;;;;4892154;29;20056;-85
2022/07/18 05:18:59;;;;;;;1286.63;978.22;;;17.10;99.90;;;;;;4870533;29;20213;-83
2022/07/18 05:21:25;;;;;;;1649.82;999.90;;;17.20;99.90;;;;;;4892960;29;20032;-84
2022/07/18 05:23:50;;;;;;;1113.97;899.30;;;17.20;99.90;;;;;;4893094;29;20087;-83
2022/07/18 05:26:16;;;;;;;880.70;789.78;;;17.30;99.90;;;;;;4888416;29;20366;-84
2022/07/18 05:28:42;;;;;;;1982.18;999.90;;;17.30;99.90;;;;;;4894746;29;20041;-84
2022/07/18 05:31:07;;;;;;;944.50;860.00;;;17.30;99.90;;;;;;4891216;29;20157;-85
2022/07/18 05:33:33;;;;;;;934.70;839.75;;;17.40;99.90;;;;;;4897210;29;20385;-84
2022/07/18 05:35:59;;;;;;;970.75;871.20;;;17.40;99.90;;;;;;4890010;29;20313;-85
2022/07/18 05:38:24;;;;;;;908.75;829.03;;;17.50;99.90;;;;;;4885348;29;20419;-83
2022/07/18 05:40:50;;;;;;;1038.72;864.13;;;17.60;99.90;;;;;;4893172;29;20072;-84
2022/07/18 05:43:16;;;;;;;910.22;824.97;;;17.80;99.90;;;;;;4878532;29;20044;-83
2022/07/18 05:45:41;;;;;;;966.25;874.65;;;17.90;99.90;;;;;;4891881;29;20406;-85
2022/07/18 05:48:07;;;;;;;1102.72;886.90;;;18.10;99.90;;;;;;4893192;29;20052;-84
2022/07/18 05:50:33;;;;;;;939.50;815.67;;;18.20;99.90;;;;;;4855865;29;1093610;-83
2022/07/18 05:52:59;;;;;;;966.10;861.80;;;18.30;99.90;;;;;;4892181;29;20518;-83
2022/07/18 05:55:25;;;;;;;950.35;855.70;;;18.30;99.90;;;;;;4891836;29;20052;-83
2022/07/18 05:57:52;;;;;;;996.25;887.45;;;18.40;99.90;;;;;;4890982;29;20080;-83
2022/07/18 06:00:18;;;;;;;1462.73;999.90;;;18.50;99.90;;;;;;4891805;29;20067;-83
2022/07/18 06:02:46;;;;;;;1216.55;925.92;;;18.60;99.90;;;;;;4891636;29;20076;-84
2022/07/18 06:05:12;;;;;;;;;;;18.60;99.90;;;;;;4893782;29;20080;-84
2022/07/18 06:07:37;;;;;;;1061.30;952.92;;;18.80;99.90;;;;;;4893563;29;19998;-84
2022/07/18 06:10:04;;;;;;;1971.85;999.90;;;18.90;99.90;;;;;;4898680;29;20314;-84
2022/07/18 06:12:30;;;;;;;1336.93;999.90;;;19.00;99.90;;;;;;4898583;29;20157;-83
2022/07/18 06:14:57;;;;;;;1054.93;892.97;;;19.10;99.90;;;;;;4899332;29;20059;-83
2022/07/18 06:17:23;;;;;;;861.30;790.00;;;19.30;99.90;;;;;;4895381;29;20052;-84
2022/07/18 06:19:49;;;;;;;986.83;885.53;;;19.40;99.90;;;;;;4882100;29;20378;-84
2022/07/18 06:22:14;;;;;;;1126.95;972.92;;;19.50;99.90;;;;;;4898596;29;20132;-83
2022/07/18 06:24:40;;;;;;;1089.88;964.78;;;19.70;99.90;;;;;;4898565;29;20105;-84
2022/07/18 06:27:06;;;;;;;1068.30;912.90;;;19.80;99.90;;;;;;4898280;29;20583;-84
2022/07/18 06:29:32;;;;;;;1057.95;940.40;;;19.90;99.90;;;;;;4896618;29;20063;-83
2022/07/18 06:31:57;;;;;;;1265.55;984.50;;;20.10;99.90;;;;;;4898505;29;20406;-83
2022/07/18 06:34:23;;;;;;;881.97;755.97;;;20.20;99.90;;;;;;4880883;29;20159;-84
2022/07/18 06:36:49;;;;;;;1369.20;999.90;;;20.30;99.90;;;;;;4896082;29;20048;-84
2022/07/18 06:39:18;;;;;;;998.38;889.40;;;20.40;99.90;;;;;;4898100;29;20051;-83
2022/07/18 06:41:44;;;;;;;975.47;825.45;;;20.40;99.90;;;;;;4898231;29;20056;-83
2022/07/18 06:44:10;;;;;;;1187.72;918.90;;;20.50;99.90;;;;;;4897485;29;20054;-84
2022/07/18 06:46:36;;;;;;;1057.70;945.38;;;20.40;99.90;;;;;;4880616;29;20501;-84
2022/07/18 06:49:03;;;;;;;902.40;745.85;;;20.40;99.90;;;;;;4895945;29;20052;-83
2022/07/18 06:51:29;;;;;;;695.92;619.58;;;20.40;99.90;;;;;;4888067;29;20415;-84
2022/07/18 06:53:55;;;;;;;901.88;807.58;;;20.40;99.90;;;;;;4897779;29;20056;-83
2022/07/18 06:56:21;;;;;;;856.97;760.25;;;20.30;99.90;;;;;;4898229;29;20049;-83
2022/07/18 06:58:49;;;;;;;860.75;768.63;;;20.40;99.90;;;;;;4898100;29;20055;-83
2022/07/18 07:01:17;;;;;;;1196.38;922.10;;;20.40;99.90;;;;;;4898005;29;20101;-82
2022/07/18 07:03:42;;;;;;;930.35;811.40;;;20.50;99.90;;;;;;4896499;29;20083;-84
2022/07/18 07:06:08;;;;;;;873.60;771.63;;;20.60;99.90;;;;;;4895420;29;20072;-84
2022/07/18 07:08:34;;;;;;;610.63;565.30;;;20.60;99.90;;;;;;4897676;29;20048;-87
2022/07/18 07:11:00;;;;;;;890.05;791.35;;;20.70;99.90;;;;;;4881195;29;20414;-83
2022/07/18 07:13:26;;;;;;;577.22;533.40;;;21.00;99.90;;;;;;4897759;29;20045;-84
2022/07/18 07:15:51;;;;;;;712.80;657.70;;;22.20;99.90;;;;;;4895226;29;20557;-85
2022/07/18 07:18:17;;;;;;;339.90;317.98;;;23.50;99.90;;;;;;4897135;29;20128;-85
2022/07/18 07:20:43;;;;;;;725.47;676.38;;;24.00;99.90;;;;;;4894905;29;20056;-85
2022/07/18 07:23:09;;;;;;;576.65;538.38;;;25.00;99.90;;;;;;4897089;29;20390;-85
2022/07/18 07:25:36;;;;;;;397.05;371.33;;;25.90;99.90;;;;;;4898025;29;20187;-87
2022/07/18 07:28:02;;;;;;;419.35;392.45;;;26.30;99.90;;;;;;4881262;29;20127;-85
2022/07/18 07:30:28;;;;;;;380.33;355.50;;;27.00;99.90;;;;;;4897783;29;20049;-85
2022/07/18 07:32:54;;;;;;;321.63;301.55;;;26.70;99.90;;;;;;4896684;29;20071;-86
2022/07/18 07:35:20;;;;;;;433.27;403.75;;;26.90;99.90;;;;;;4897488;29;20052;-85
2022/07/18 07:37:56;;;;;;;533.85;497.48;;;27.30;99.90;;;;;;4879984;29;20048;-86
2022/07/18 07:40:26;;;;;;;441.35;412.13;;;27.90;99.90;;;;;;4896858;29;20052;-85
2022/07/18 07:42:52;;;;;;;586.83;546.47;;;28.40;99.90;;;;;;4895844;29;20052;-85
2022/07/18 07:45:19;;;;;;;317.10;296.20;;;28.30;99.90;;;;;;4894679;29;20055;-85
2022/07/18 07:47:45;;;;;;;278.08;260.25;;;28.10;99.90;;;;;;4894534;29;20148;-85
2022/07/18 07:50:12;;;;;;;301.05;282.27;;;27.60;99.90;;;;;;4895406;29;20056;-84
2022/07/18 07:52:38;;;;;;;429.75;399.48;;;27.20;99.90;;;;;;4897006;29;20099;-85
2022/07/18 07:55:07;;;;;;;410.83;382.67;;;27.10;99.90;;;;;;4901351;29;20057;-85
2022/07/18 07:57:35;;;;;;;409.88;380.85;;;27.60;99.90;;;;;;4894886;29;20052;-86
2022/07/18 08:00:04;;;;;;;318.42;296.20;;;27.80;99.90;;;;;;4896285;29;20095;-85
2022/07/18 08:02:30;;;;;;;539.28;499.95;;;28.40;99.90;;;;;;4896696;29;20109;-85
2022/07/18 08:04:55;;;;;;;413.67;384.98;;;28.50;99.90;;;;;;4892472;29;20052;-95
2022/07/18 08:07:21;;;;;;;537.78;499.75;;;28.70;99.90;;;;;;4895960;29;20044;-85
2022/07/18 08:09:47;;;;;;;581.35;537.35;;;29.10;99.90;;;;;;4880788;29;20055;-86
2022/07/18 08:12:13;;;;;;;593.60;549.28;;;29.10;99.90;;;;;;4879957;29;20053;-85
2022/07/18 08:14:40;;;;;;;577.80;533.80;;;30.30;99.90;;;;;;4895802;29;20059;-84
2022/07/18 08:17:06;;;;;;;455.20;423.00;;;30.50;99.90;;;;;;4896137;29;20053;-85
2022/07/18 08:19:31;;;;;;;462.65;430.02;;;30.80;99.90;;;;;;4895880;29;20100;-84
2022/07/18 08:21:57;;;;;;;859.90;785.45;;;30.60;99.90;;;;;;4895956;29;20549;-85
2022/07/18 08:24:23;;;;;;;738.17;675.70;;;30.80;99.90;;;;;;4875410;29;20084;-84
2022/07/18 08:26:49;;;;;;;798.17;728.10;;;30.50;99.90;;;;;;4880914;29;20095;-85
2022/07/18 08:29:15;;;;;;;669.58;616.40;;;30.80;99.90;;;;;;4863879;29;20147;-84
2022/07/18 08:31:41;;;;;;;810.92;737.63;;;31.50;99.90;;;;;;4873966;29;20476;-85
2022/07/18 08:34:06;;;;;;;782.35;712.53;;;31.00;99.90;;;;;;4908785;29;20525;-85
2022/07/18 08:36:32;;;;;;;897.05;815.22;;;31.20;99.90;;;;;;4878459;29;20058;-85
2022/07/18 08:38:58;;;;;;;693.88;633.17;;;32.20;99.90;;;;;;4877610;29;20456;-84
2022/07/18 08:41:24;;;;;;;554.80;512.65;;;33.20;99.90;;;;;;4877148;29;20185;-85
2022/07/18 08:43:50;;;;;;;642.38;589.47;;;32.10;99.90;;;;;;4877719;29;20471;-85
2022/07/18 08:46:21;;;;;;;707.63;649.63;;;31.60;99.90;;;;;;4893656;29;20084;-85
2022/07/18 08:48:47;;;;;;;897.63;817.22;;;31.80;99.90;;;;;;4894774;29;20068;-85
2022/07/18 08:51:13;;;;;;;890.00;807.83;;;32.10;99.90;;;;;;4895300;29;20498;-86
2022/07/18 08:53:40;;;;;;;727.00;664.88;;;31.60;99.90;;;;;;4895981;29;20092;-85
2022/07/18 08:56:06;;;;;;;596.78;549.20;;;31.70;99.90;;;;;;4891694;29;20147;-86
2022/07/18 08:58:32;;;;;;;776.90;712.35;;;31.90;99.90;;;;;;4886429;29;20458;-83
2022/07/18 09:01:00;;;;;;;910.75;826.92;;;32.10;99.90;;;;;;4902173;29;20131;-85
2022/07/18 09:03:26;;;;;;;827.80;757.80;;;32.30;99.90;;;;;;4898950;29;20117;-85
2022/07/18 09:06:10;;;;;;;863.00;786.28;;;32.20;99.90;;;;;;4900316;29;20401;-85
2022/07/18 09:08:38;;;;;;;847.05;770.97;;;31.50;99.90;;;;;;4911894;29;20088;-85
2022/07/18 09:11:09;;;;;;;973.75;883.85;;;31.20;99.90;;;;;;4895536;29;20108;-88
2022/07/18 09:13:42;;;;;;;724.30;663.05;;;31.10;99.90;;;;;;4896582;29;20044;-86
2022/07/18 09:16:12;;;;;;;935.90;850.35;;;30.70;99.90;;;;;;4895506;29;20060;-85
2022/07/18 09:18:43;;;;;;;640.38;588.63;;;31.00;99.90;;;;;;4896645;29;20170;-85
2022/07/18 09:21:12;;;;;;;892.53;815.10;;;31.30;99.90;;;;;;4880387;29;20128;-84
2022/07/18 09:23:41;;;;;;;850.80;775.55;;;31.40;99.90;;;;;;4895420;29;20053;-85
2022/07/18 09:26:08;;;;;;;929.63;844.38;;;31.60;99.90;;;;;;4894595;29;20519;-85
2022/07/18 09:28:53;;;;;;;737.88;675.13;;;32.10;99.90;;;;;;4893742;29;20569;-83
2022/07/18 09:31:20;;;;;;;612.60;566.58;;;31.10;99.90;;;;;;4895852;29;20060;-83
2022/07/18 09:33:58;;;;;;;907.47;824.40;;;31.30;98.10;;;;;;4879492;29;20071;-84
2022/07/18 09:36:24;;;;;;;866.90;792.00;;;32.10;99.90;;;;;;4895219;29;20116;-84
2022/07/18 09:38:50;;;;;;;699.60;642.30;;;32.00;99.80;;;;;;4895347;29;20072;-85
2022/07/18 09:41:21;;;;;;;442.38;414.38;;;33.30;99.90;;;;;;4879819;29;20055;-84
2022/07/18 09:43:46;;;;;;;455.58;422.73;;;32.80;94.30;;;;;;4879856;29;20048;-85
2022/07/18 09:46:12;;;;;;;504.75;467.23;;;33.10;93.10;;;;;;4895178;29;20684;-86
2022/07/18 09:48:38;;;;;;;427.90;401.27;;;33.80;95.00;;;;;;4893813;29;20410;-86
2022/07/18 09:51:09;;;;;;;529.65;488.25;;;34.70;93.90;;;;;;4879497;29;20056;-84
2022/07/18 09:53:42;;;;;;;487.02;450.88;;;34.80;88.60;;;;;;4895316;29;20060;-84
2022/07/18 09:56:24;;;;;;;633.55;580.00;;;34.10;84.40;;;;;;4896677;29;20051;-85
2022/07/18 09:58:56;;;;;;;445.55;414.08;;;34.20;90.00;;;;;;4894865;29;20060;-89
2022/07/18 10:01:22;;;;;;;633.63;575.25;;;33.80;84.10;;;;;;4907621;29;20044;-83
2022/07/18 10:03:51;;;;;;;355.53;330.87;;;32.80;79.70;;;;;;4891685;29;20060;-81
2022/07/18 10:06:18;;;;;;;568.47;517.40;;;32.50;82.40;;;;;;4894079;29;20297;-82
2022/07/18 10:08:44;;;;;;;849.25;775.05;;;33.10;85.60;;;;;;4895230;29;20346;-82
2022/07/18 10:11:10;;;;;;;686.20;626.95;;;33.50;89.60;;;;;;4893838;29;20044;-82
2022/07/18 10:13:38;;;;;;;563.38;517.50;;;33.90;89.30;;;;;;4873290;29;20380;-86
2022/07/18 10:16:05;;;;;;;568.95;522.53;;;34.30;88.80;;;;;;4894143;29;20139;-85
2022/07/18 10:18:33;;;;;;;686.22;623.67;;;34.70;88.70;;;;;;4894120;29;20045;-84
2022/07/18 10:21:01;;;;;;;923.03;838.38;;;34.80;84.50;;;;;;4895299;29;20045;-85
2022/07/18 10:23:33;;;;;;;435.52;400.33;;;34.40;86.20;;;;;;4893468;29;20443;-84
2022/07/18 10:26:15;;;;;;;706.10;643.70;;;34.80;77.00;;;;;;4891817;29;20516;-86
2022/07/18 10:29:15;;;;;;;391.13;360.92;;;35.00;84.60;;;;;;4893559;29;20048;-84
2022/07/18 10:32:02;;;;;;;603.03;542.95;;;34.90;75.20;;;;;;4848777;29;20067;-83
2022/07/18 10:34:36;;;;;;;254.15;236.18;;;33.80;69.30;;;;;;4894701;29;20041;-85
2022/07/18 10:37:03;;;;;;;272.30;250.82;;;33.90;76.80;;;;;;4896428;29;20092;-83
2022/07/18 10:39:37;;;;;;;802.65;730.78;;;34.90;74.30;;;;;;4895349;29;20143;-83
2022/07/18 10:42:03;;;;;;;237.30;222.07;;;35.80;77.20;;;;;;4890637;29;20060;-86
2022/07/18 10:44:29;;;;;;;276.63;257.73;;;35.70;71.00;;;;;;4893840;29;20060;-83
2022/07/18 10:47:08;;;;;;;382.08;353.38;;;35.10;72.60;;;;;;4891425;29;20052;-82
2022/07/18 10:49:49;;;;;;;913.80;832.08;;;35.30;69.50;;;;;;4892180;29;20055;-85
2022/07/18 10:55:06;;;;;;;410.52;383.92;;;35.60;66.80;;;;;;4896737;29;20439;-82
2022/07/18 10:57:43;;;;;;;337.83;317.10;;;37.00;68.80;;;;;;4897989;29;20406;-83
2022/07/18 11:00:25;;;;;;;486.60;452.05;;;38.10;54.30;;;;;;4895707;29;20049;-84
2022/07/18 11:03:00;;;;;;;926.97;845.45;;;38.40;54.80;;;;;;4896715;29;20056;-85
2022/07/18 11:05:25;;;;;;;769.35;703.78;;;38.50;61.60;;;;;;4897797;29;20073;-85
2022/07/18 11:08:03;;;;;;;368.92;344.75;;;38.20;63.00;;;;;;4895974;29;20064;-80
2022/07/18 11:10:44;;;;;;;756.65;693.63;;;37.00;44.70;;;;;;4897020;29;20100;-82
2022/07/18 11:13:28;;;;;;;985.85;895.20;;;37.30;48.10;;;;;;4880403;29;20467;-83
2022/07/18 11:16:09;;;;;;;473.05;440.50;;;38.10;45.60;;;;;;4879671;29;20067;-83
2022/07/18 11:18:41;;;;;;;435.27;402.73;;;37.50;46.20;;;;;;4893722;29;20052;-81
2022/07/18 11:21:27;;;;;;;525.17;488.00;;;38.10;42.20;;;;;;4898005;29;20108;-85
2022/07/18 11:23:54;;;;;;;628.50;579.67;;;37.80;39.00;;;;;;4897914;29;20048;-84
2022/07/18 11:26:21;;;;;;;421.60;390.60;;;38.00;42.40;;;;;;4912292;29;20061;-90
2022/07/18 11:28:51;;;;;;;669.25;619.70;;;37.30;40.70;;;;;;4899185;29;20056;-83
2022/07/18 11:31:17;;;;;;;583.70;539.75;;;36.80;39.80;;;;;;4897681;29;20041;-82
2022/07/18 11:33:48;;;;;;;723.63;663.70;;;36.20;34.20;;;;;;4897921;29;20528;-84
2022/07/18 11:36:21;;;;;;;512.90;474.77;;;36.30;44.10;;;;;;4882541;29;20103;-85
2022/07/18 11:38:56;;;;;;;539.65;500.90;;;36.80;41.50;;;;;;4896015;29;20056;-84
2022/07/18 11:41:23;;;;;;;539.50;499.73;;;37.50;44.90;;;;;;4898676;29;20055;-83
2022/07/18 11:43:50;;;;;;;;;;;37.90;37.70;;;;;;4898260;29;20108;-84
2022/07/18 11:46:18;;;;;;;848.03;779.35;;;38.10;37.00;;;;;;4896668;29;19927;-84
2022/07/18 11:48:48;;;;;;;759.03;695.05;;;39.30;44.30;;;;;;4897027;29;20044;-83
2022/07/18 11:51:16;;;;;;;817.38;751.22;;;38.50;34.50;;;;;;4897913;29;20096;-82
2022/07/18 11:53:46;;;;;;;805.28;740.40;;;38.20;36.40;;;;;;4897628;29;20114;-83
2022/07/18 11:56:12;;;;;;;860.25;789.75;;;38.50;33.40;;;;;;4885045;29;20148;-83
2022/07/18 11:58:39;;;;;;;768.55;709.25;;;38.20;38.90;;;;;;4897634;29;20084;-82
2022/07/18 12:01:05;;;;;;;684.58;631.97;;;37.40;36.90;;;;;;4901681;29;20139;-84
2022/07/18 12:03:34;;;;;;;490.60;454.17;;;37.30;40.20;;;;;;4913773;29;20135;-85
2022/07/18 12:06:10;;;;;;;629.67;579.30;;;36.30;36.80;;;;;;4914854;29;20077;-83
2022/07/18 12:08:39;;;;;;;747.20;687.15;;;35.10;32.00;;;;;;4910317;29;20398;-84
2022/07/18 12:11:34;;;;;;;283.75;266.48;;;35.30;36.30;;;;;;4910976;29;20092;-84
2022/07/18 12:14:16;;;;;;;512.25;473.40;;;35.80;35.50;;;;;;4906225;29;20100;-83
2022/07/18 12:16:56;;;;;;;667.67;615.15;;;35.70;29.60;;;;;;4909048;29;20059;-84